createdAt,value
2022-10-02T00:06:39.722Z,37.1
2022-10-02T00:13:58.282Z,36.93
2022-10-02T00:21:00.147Z,37.07
2022-10-02T00:28:19.846Z,37.14
2022-10-02T00:35:43.349Z,37.09
2022-10-02T00:42:57.581Z,37.16
2022-10-02T00:50:05.629Z,37.17
2022-10-02T00:57:00.876Z,37.1
2022-10-02T01:04:24.283Z,37.21
2022-10-02T01:11:07.868Z,37.15
2022-10-02T01:17:58.264Z,37.13
2022-10-02T01:25:03.546Z,37.16
2022-10-02T01:31:47.843Z,37.13
2022-10-02T01:38:34.034Z,37.16
2022-10-02T01:45:29.644Z,37.13
2022-10-02T01:52:52.281Z,37.17
2022-10-02T02:00:09.610Z,37.16
2022-10-02T02:07:15.343Z,37.18
2022-10-02T02:14:19.618Z,37.25
2022-10-02T02:21:25.310Z,36.89
2022-10-02T02:28:28.342Z,37.05
2022-10-02T02:35:36.554Z,37.07
2022-10-02T02:42:30.524Z,36.99
2022-10-02T02:49:43.532Z,36.91
2022-10-02T02:56:53.676Z,36.7
2022-10-02T03:03:45.239Z,36.52
2022-10-02T03:10:41.650Z,36.88
2022-10-02T03:17:44.316Z,36.98
2022-10-02T03:25:02.770Z,36.83
2022-10-02T03:32:05.630Z,36.86
2022-10-02T03:39:20.160Z,36.76
2022-10-02T03:45:52.160Z,36.9
2022-10-02T03:52:20.454Z,37.05
2022-10-02T03:59:15.480Z,37.08
2022-10-02T04:06:34.978Z,36.89
2022-10-02T04:13:51.806Z,36.99
2022-10-02T04:21:19.862Z,37.05
2022-10-02T04:28:22.671Z,36.93
2022-10-02T04:35:27.689Z,37.19
2022-10-02T04:42:47.826Z,37.17
2022-10-02T04:49:47.335Z,37.18
2022-10-02T04:56:48.998Z,37.34
2022-10-02T05:04:09.803Z,37.22
2022-10-02T05:11:12.679Z,37.25
2022-10-02T05:18:18.217Z,37.14
2022-10-02T05:25:31.590Z,37.17
2022-10-02T05:32:37.734Z,37.3
2022-10-02T05:39:45.804Z,37.04
2022-10-02T05:47:03.004Z,37.11
2022-10-02T05:54:07.415Z,37.1
2022-10-02T06:01:29.410Z,37.15
2022-10-02T06:08:35.397Z,37.2
2022-10-02T06:15:48.729Z,37.18
2022-10-02T06:22:59.728Z,37.11
2022-10-02T06:30:23.730Z,37.11
2022-10-02T06:37:37.443Z,37.11
2022-10-02T06:44:47.628Z,37.17
2022-10-02T06:51:55.873Z,37.15
2022-10-02T06:59:08.179Z,37.04
2022-10-02T07:06:12.381Z,37.1
2022-10-02T07:13:10.455Z,36.87
2022-10-02T07:20:19.620Z,36.83
2022-10-02T07:27:26.270Z,37.22
2022-10-02T07:34:23.937Z,37.3
2022-10-02T07:41:28.272Z,37.37
2022-10-02T07:48:41.420Z,37.37
2022-10-02T07:55:47.395Z,37.29
2022-10-02T08:02:52.083Z,37.45
2022-10-02T08:09:50.682Z,37.43
2022-10-02T08:17:01.265Z,37.39
2022-10-02T08:24:14.589Z,37.28
2022-10-02T08:31:23.807Z,37.44
2022-10-02T08:38:21.822Z,37.43
2022-10-02T08:45:32.580Z,37.3
2022-10-02T08:52:42.406Z,37.12
2022-10-02T08:59:33.974Z,37.27
2022-10-02T09:06:43.637Z,37.27
2022-10-02T09:13:52.089Z,37.08
2022-10-02T09:20:49.860Z,37.08
2022-10-02T09:27:57.881Z,37.18
2022-10-02T09:34:59.465Z,37.22
2022-10-02T09:42:14.727Z,37.34
2022-10-02T09:49:16.673Z,37.32
2022-10-02T09:56:29.226Z,37.3
2022-10-02T10:03:38.646Z,37.36
2022-10-02T10:10:43.829Z,37.39
2022-10-02T10:18:00.148Z,37.28
2022-10-02T10:25:20.915Z,37.21
2022-10-02T10:32:35.873Z,37.24
2022-10-02T10:39:40.637Z,37.29
2022-10-02T10:46:45.203Z,37.2
2022-10-02T10:54:05.876Z,37.17
2022-10-02T11:01:16.152Z,37.26
2022-10-02T11:08:30.497Z,37.22
2022-10-02T11:15:37.884Z,37.31
2022-10-02T11:22:39.094Z,37.35
2022-10-02T11:29:54.769Z,37.51
2022-10-02T11:36:54.503Z,37.32
2022-10-02T11:43:44.394Z,37.37
2022-10-02T11:50:49.923Z,37.34
2022-10-02T11:57:45.953Z,37.27
2022-10-02T12:05:01.933Z,37.11
2022-10-02T12:12:05.525Z,37.01
2022-10-02T12:19:11.559Z,36.93
2022-10-02T12:26:09.995Z,36.83
2022-10-02T12:33:33.935Z,36.94
2022-10-02T12:40:37.915Z,36.9
2022-10-02T12:47:55.816Z,36.94
2022-10-02T12:54:59.639Z,37.08
2022-10-02T13:02:12.096Z,37.07
2022-10-02T13:09:30.352Z,37.07
2022-10-02T13:16:35.052Z,37
2022-10-02T13:23:45.944Z,36.93
2022-10-02T13:30:59.751Z,37
2022-10-02T13:38:00.534Z,37.15
2022-10-02T13:45:08.672Z,37
2022-10-02T13:52:14.623Z,37.1
2022-10-02T13:59:28.831Z,37.1
2022-10-02T14:06:43.414Z,36.92
2022-10-02T14:14:04.531Z,36.74
2022-10-02T14:20:58.629Z,36.86
2022-10-02T14:28:11.797Z,36.98
2022-10-02T14:35:20.022Z,37.14
2022-10-02T14:42:15.735Z,37.23
2022-10-02T14:49:21.042Z,37.21
2022-10-02T14:56:27.796Z,37.31
2022-10-02T15:03:28.316Z,37.27
2022-10-02T15:10:36.117Z,37.48
2022-10-02T15:17:59.602Z,37.18
2022-10-02T15:25:04.790Z,37.01
2022-10-02T15:32:14.556Z,37.08
2022-10-02T15:39:36.641Z,37.2
2022-10-02T15:46:32.582Z,37.12
2022-10-02T15:53:41.977Z,36.97
2022-10-02T16:00:50.949Z,37.29
2022-10-02T16:07:56.981Z,37.63
2022-10-02T16:15:02.018Z,37.55
2022-10-02T16:22:06.037Z,37.42
2022-10-02T16:29:06.930Z,37.17
2022-10-02T16:36:20.815Z,37
2022-10-02T16:43:19.304Z,37.09
2022-10-02T16:50:26.533Z,36.88
2022-10-02T16:57:53.288Z,37.17
2022-10-02T17:05:11.650Z,37.16
2022-10-02T17:12:18.675Z,37.13
2022-10-02T17:19:22.898Z,37.26
2022-10-02T17:26:38.289Z,37.21
2022-10-02T17:33:44.101Z,37.41
2022-10-02T17:40:57.745Z,37.35
2022-10-02T17:48:10.030Z,37.6
2022-10-02T17:55:24.803Z,37.51
2022-10-02T18:02:44.462Z,37.56
2022-10-02T18:09:54.070Z,37.6
2022-10-02T18:17:06.673Z,37.56
2022-10-02T18:24:20.257Z,37.57
2022-10-02T18:31:55.602Z,37.5
2022-10-02T18:39:04.197Z,37.55
2022-10-02T18:46:01.695Z,37.65
2022-10-02T18:53:02.087Z,37.57
2022-10-02T19:00:14.110Z,37.57
2022-10-02T19:07:18.775Z,37.62
2022-10-02T19:14:25.087Z,37.52
2022-10-02T19:21:24.756Z,37.58
2022-10-02T19:28:23.877Z,37.47
2022-10-02T19:35:18.849Z,37.59
2022-10-02T19:42:18.250Z,37.62
2022-10-02T19:49:30.123Z,37.63
2022-10-02T19:56:40.179Z,37.67
2022-10-02T20:03:40.146Z,37.6
2022-10-02T20:10:48.255Z,37.51
2022-10-02T20:17:55.066Z,37.56
2022-10-02T20:25:00.160Z,37.55
2022-10-02T20:32:22.184Z,37.58
2022-10-02T20:39:33.512Z,37.58
2022-10-02T20:46:32.711Z,37.39
2022-10-02T20:53:46.786Z,37.13
2022-10-02T21:01:02.957Z,37.18
2022-10-02T21:08:06.969Z,37.18
2022-10-02T21:15:11.928Z,37.28
2022-10-02T21:22:21.175Z,37.03
2022-10-02T21:29:38.204Z,37.22
2022-10-02T21:36:37.349Z,37.22
2022-10-02T21:43:48.243Z,37.25
2022-10-02T21:51:04.089Z,37.33
2022-10-02T21:58:17.109Z,37.4
2022-10-02T22:05:30.728Z,37.36
2022-10-02T22:12:26.213Z,37.37
2022-10-02T22:19:34.961Z,37.34
2022-10-02T22:26:35.923Z,37.36
2022-10-02T22:33:34.215Z,37.37
2022-10-02T22:40:56.750Z,37.29
2022-10-02T22:48:04.123Z,37.27
2022-10-02T22:55:14.796Z,37.29
2022-10-02T23:02:29.417Z,37.32
2022-10-02T23:09:39.066Z,37.49
2022-10-02T23:16:55.589Z,37.41
2022-10-02T23:24:23.257Z,37.36
2022-10-02T23:31:57.737Z,37.39
2022-10-02T23:39:01.830Z,37.34
2022-10-02T23:46:07.163Z,37.32
2022-10-02T23:52:57.686Z,37.33
2022-10-02T23:59:59.265Z,37.41
